Time;durP1;ratioP1;P1;durP2;ratioP2;P2;SDS_P1;SDS_P2;PMS_P1;PMS_P2;Temp;Humidity;BMP_temperature;BMP_pressure;BME280_temperature;BME280_humidity;BME280_pressure;Samples;Min_cycle;Max_cycle;Signal;HPM_P1;HPM_P2
2022/10/02 00:01:52;;;;;;;2.87;2.40;;;;;;;17.71;100.00;94613.56;5029717;28;20889;-80
2022/10/02 00:04:25;;;;;;;5.90;2.90;;;;;;;17.73;100.00;94598.28;5029615;28;20445;-79
2022/10/02 00:06:55;;;;;;;7.23;3.10;;;;;;;17.83;100.00;94597.00;5029798;28;20486;-81
2022/10/02 00:09:28;;;;;;;8.77;3.23;;;;;;;17.86;100.00;94606.44;5029768;28;20443;-79
2022/10/02 00:11:58;;;;;;;3.40;2.40;;;;;;;17.89;100.00;94606.06;4997282;28;20447;-80
2022/10/02 00:14:33;;;;;;;3.50;2.80;;;;;;;17.85;100.00;94602.97;5029606;28;20454;-79
2022/10/02 00:17:01;;;;;;;4.50;3.13;;;;;;;17.92;100.00;94611.84;5029383;28;20576;-79
2022/10/02 00:19:28;;;;;;;3.37;3.13;;;;;;;17.94;100.00;94601.88;5109334;28;20439;-80
2022/10/02 00:22:04;;;;;;;4.43;2.63;;;;;;;18.01;100.00;94603.81;5116392;28;20496;-80
2022/10/02 00:24:37;;;;;;;3.33;3.03;;;;;;;18.06;100.00;94602.25;5116557;28;20434;-78
2022/10/02 00:27:15;;;;;;;5.17;3.07;;;;;;;18.07;100.00;94609.22;5116534;28;20435;-80
2022/10/02 00:29:49;;;;;;;4.10;2.70;;;;;;;18.06;100.00;94601.44;5116257;28;20455;-78
2022/10/02 00:32:24;;;;;;;7.80;3.40;;;;;;;18.14;100.00;94603.97;5116443;28;20447;-80
2022/10/02 00:35:19;;;;;;;4.17;3.40;;;;;;;17.99;100.00;94611.13;5116040;27;20437;-79
2022/10/02 00:37:57;;;;;;;10.93;4.03;;;;;;;17.84;100.00;94619.88;5116463;28;20474;-80
2022/10/02 00:40:43;;;;;;;4.27;3.80;;;;;;;17.73;100.00;94622.16;5116005;28;20458;-80
2022/10/02 00:43:19;;;;;;;6.63;4.80;;;;;;;17.59;100.00;94616.59;5116265;28;20446;-80
2022/10/02 00:46:02;;;;;;;4.83;4.43;;;;;;;17.59;100.00;94631.69;5116122;28;20482;-79
2022/10/02 00:48:47;;;;;;;4.20;3.90;;;;;;;17.49;100.00;94633.78;5115974;28;20447;-78
2022/10/02 00:51:26;;;;;;;11.10;4.93;;;;;;;17.50;100.00;94646.88;5115934;28;20439;-79
2022/10/02 01:53:03;;;;;;;7.70;2.30;;;;;;;16.87;100.00;94681.59;5123769;27;20558;-78
2022/10/02 01:55:40;;;;;;;2.17;2.07;;;;;;;16.83;100.00;94686.44;5093684;28;21010;-78
2022/10/02 01:58:18;;;;;;;3.23;2.03;;;;;;;16.77;100.00;94684.47;5105307;28;20533;-78
2022/10/02 02:00:54;;;;;;;2.50;2.30;;;;;;;16.75;100.00;94685.63;5110146;28;20490;-78
2022/10/02 02:03:29;;;;;;;3.37;2.30;;;;;;;16.73;100.00;94689.25;5098192;28;20512;-78
2022/10/02 02:06:02;;;;;;;2.20;2.00;;;;;;;16.69;100.00;94685.31;5095495;28;20442;-78
2022/10/02 02:08:34;;;;;;;3.00;2.50;;;;;;;16.81;100.00;94690.25;5095803;28;20807;-79
2022/10/02 02:11:10;;;;;;;2.00;1.90;;;;;;;16.80;99.17;94686.78;5096738;28;20266;-80
2022/10/02 02:13:44;;;;;;;2.03;1.83;;;;;;;16.80;99.00;94694.72;5089695;28;20447;-80
2022/10/02 02:16:20;;;;;;;3.63;2.00;;;;;;;16.72;99.09;94703.50;5089734;28;20496;-80
2022/10/02 02:18:54;;;;;;;2.07;1.97;;;;;;;16.68;97.25;94707.50;5089669;28;20451;-80
2022/10/02 02:21:24;;;;;;;3.10;2.13;;;;;;;16.64;96.94;94705.34;5089915;28;20502;-79
2022/10/02 02:23:56;;;;;;;2.10;1.70;;;;;;;16.62;97.33;94713.47;5089494;28;20440;-79
2022/10/02 02:26:25;;;;;;;5.00;2.00;;;;;;;16.61;97.03;94717.13;5089791;28;20447;-78
2022/10/02 02:28:57;;;;;;;2.60;2.40;;;;;;;16.65;97.66;94722.91;5054616;28;20459;-79
2022/10/02 02:31:28;;;;;;;1.87;1.67;;;;;;;16.64;97.40;94722.06;5089422;28;20440;-78
2022/10/02 02:33:59;;;;;;;2.10;2.00;;;;;;;16.52;96.78;94726.09;5089510;28;20443;-79
2022/10/02 02:36:31;;;;;;;5.90;2.00;;;;;;;16.51;97.64;94727.09;5089256;28;21030;-79
2022/10/02 02:39:04;;;;;;;1.93;1.73;;;;;;;16.42;97.27;94726.25;5089348;28;20454;-79
2022/10/02 02:41:38;;;;;;;2.70;1.77;;;;;;;16.40;98.11;94728.25;5089088;28;20997;-79
2022/10/02 02:44:10;;;;;;;3.03;2.37;;;;;;;16.39;97.55;94726.59;5089596;28;20496;-79
2022/10/02 02:49:26;;;;;;;2.10;2.00;;;;;;;16.42;97.54;94734.22;5058243;28;20436;-78
2022/10/02 02:51:55;;;;;;;2.50;2.30;;;;;;;16.39;98.01;94723.97;5098766;28;21005;-78
2022/10/02 02:54:30;;;;;;;1.90;1.80;;;;;;;16.38;97.67;94737.38;5060330;28;20444;-79
2022/10/02 02:56:58;;;;;;;4.13;2.70;;;;;;;16.36;98.29;94728.78;5095801;28;20500;-78
2022/10/02 02:59:30;;;;;;;4.20;2.50;;;;;;;16.33;97.92;94734.41;5095888;28;20447;-78
2022/10/02 03:01:57;;;;;;;2.67;2.47;;;;;;;16.33;98.18;94745.00;5095761;28;20484;-79
2022/10/02 03:04:24;;;;;;;3.77;2.37;;;;;;;16.28;98.17;94740.22;5095445;28;20435;-78
2022/10/02 03:06:56;;;;;;;5.93;3.00;;;;;;;16.26;98.95;94751.97;5095905;28;20500;-79
2022/10/02 03:09:27;;;;;;;3.20;2.40;;;;;;;16.23;99.20;94753.13;5095538;28;20446;-79
2022/10/02 03:12:04;;;;;;;2.83;2.63;;;;;;;16.19;100.00;94765.06;5095881;28;20455;-79
2022/10/02 03:14:58;;;;;;;2.80;2.60;;;;;;;16.20;99.05;94768.53;5095513;28;20445;-79
2022/10/02 03:17:36;;;;;;;4.10;2.97;;;;;;;16.22;99.83;94774.50;5095432;28;20961;-79
2022/10/02 03:20:10;;;;;;;2.60;2.40;;;;;;;16.20;99.13;94787.91;5059652;28;20436;-79
2022/10/02 03:22:46;;;;;;;3.70;3.40;;;;;;;16.24;99.80;94798.97;5097474;28;20479;-79
2022/10/02 03:25:20;;;;;;;3.63;3.30;;;;;;;16.25;99.57;94795.34;5115739;28;20501;-79
2022/10/02 03:27:54;;;;;;;4.57;3.30;;;;;;;16.25;98.59;94804.09;5079421;28;20985;-79
2022/10/02 03:30:20;;;;;;;3.83;3.20;;;;;;;16.22;98.73;94811.56;5115687;28;20447;-79
2022/10/02 03:32:52;;;;;;;4.60;4.20;;;;;;;16.22;98.06;94817.69;5116001;28;20470;-79
2022/10/02 03:35:21;;;;;;;4.60;4.07;;;;;;;16.23;98.21;94823.81;5115402;28;20443;-79
2022/10/02 03:37:52;;;;;;;4.80;4.50;;;;;;;16.26;98.29;94826.13;5115524;28;20442;-79
2022/10/02 03:40:24;;;;;;;5.13;4.63;;;;;;;16.25;97.93;94822.63;5115423;28;20446;-80
2022/10/02 03:42:51;;;;;;;5.40;5.00;;;;;;;16.26;98.60;94807.56;5115229;28;20514;-79
2022/10/02 03:45:18;;;;;;;4.93;4.53;;;;;;;16.27;98.84;94827.78;5114881;28;20532;-79
2022/10/02 03:47:45;;;;;;;4.87;4.40;;;;;;;16.21;98.00;94831.09;5115218;28;20447;-79
2022/10/02 03:50:13;;;;;;;4.40;4.10;;;;;;;16.25;98.08;94845.66;5115084;28;20501;-79
2022/10/02 03:52:41;;;;;;;7.13;4.07;;;;;;;16.26;97.40;94839.34;5115332;28;20468;-79
2022/10/02 03:55:19;;;;;;;4.70;4.30;;;;;;;16.29;97.46;94833.72;5115403;28;20971;-79
2022/10/02 03:57:48;;;;;;;5.00;4.60;;;;;;;16.25;96.96;94835.88;5115050;28;20502;-79
2022/10/02 04:00:19;;;;;;;4.40;4.00;;;;;;;16.24;96.57;94830.75;5114736;28;20452;-79
2022/10/02 04:02:52;;;;;;;4.20;3.90;;;;;;;16.20;96.56;94845.31;5114629;28;20485;-79
2022/10/02 04:05:22;;;;;;;5.63;4.80;;;;;;;16.26;95.92;94849.94;5113609;28;20453;-79
2022/10/02 04:07:54;;;;;;;8.13;4.33;;;;;;;16.26;95.79;94850.78;5029769;28;20978;-79
2022/10/02 04:10:29;;;;;;;4.90;4.60;;;;;;;16.24;95.54;94852.75;5114673;28;20456;-79
2022/10/02 04:13:04;;;;;;;5.27;4.43;;;;;;;16.26;95.50;94861.38;5114815;28;20445;-79
2022/10/02 04:15:35;;;;;;;4.93;4.50;;;;;;;16.18;96.47;94857.88;5114428;28;20502;-79
2022/10/02 04:18:07;;;;;;;5.40;4.73;;;;;;;16.21;97.01;94862.84;5114819;28;20446;-79
2022/10/02 04:20:42;;;;;;;6.30;4.57;;;;;;;16.14;96.97;94867.13;5114792;28;20439;-79
2022/10/02 04:23:17;;;;;;;4.60;4.30;;;;;;;16.11;97.48;94885.00;5114384;28;20848;-79
2022/10/02 04:25:50;;;;;;;5.30;4.90;;;;;;;16.06;97.26;94892.63;5114606;28;20445;-79
2022/10/02 04:28:23;;;;;;;5.03;4.70;;;;;;;16.04;96.77;94909.66;5114753;28;20450;-79
2022/10/02 04:30:52;;;;;;;5.50;5.10;;;;;;;16.02;97.71;94906.34;5114439;28;20443;-79
2022/10/02 04:33:22;;;;;;;5.60;5.10;;;;;;;16.07;97.66;94907.50;5114269;28;20988;-79
2022/10/02 04:36:03;;;;;;;4.60;4.30;;;;;;;16.09;97.47;94902.03;5114317;28;20450;-79
2022/10/02 04:38:55;;;;;;;5.90;4.67;;;;;;;16.07;97.70;94910.16;5114287;28;20452;-79
2022/10/02 04:41:39;;;;;;;4.80;4.40;;;;;;;16.13;97.34;94923.72;5114164;28;20854;-79
2022/10/02 04:44:20;;;;;;;5.17;4.77;;;;;;;16.17;97.52;94925.03;5113981;28;20450;-79
2022/10/02 04:47:10;;;;;;;5.30;4.93;;;;;;;16.23;97.15;94927.06;5113925;28;20507;-79
2022/10/02 04:49:58;;;;;;;4.67;4.37;;;;;;;16.20;96.03;94927.41;5114313;28;20450;-79
2022/10/02 04:52:42;;;;;;;5.87;5.10;;;;;;;16.27;96.63;94938.97;5114358;28;20516;-79
2022/10/02 04:55:25;;;;;;;4.60;4.30;;;;;;;16.38;96.75;94934.19;5113819;28;20438;-79
2022/10/02 04:58:23;;;;;;;6.63;5.07;;;;;;;16.54;95.50;94937.84;5113900;28;20951;-79
2022/10/02 05:01:01;;;;;;;7.80;5.03;;;;;;;16.53;94.51;94944.97;5113663;28;20443;-79
2022/10/02 05:03:44;;;;;;;6.73;5.50;;;;;;;16.57;94.05;94938.34;5113806;28;20441;-79
2022/10/02 05:06:30;;;;;;;4.87;4.57;;;;;;;16.44;93.96;94927.41;5113677;28;20446;-79
2022/10/02 05:09:06;;;;;;;5.30;4.80;;;;;;;16.46;93.48;94936.00;5077838;28;20448;-79
2022/10/02 05:12:10;;;;;;;5.35;4.95;;;;;;;16.39;94.08;94935.00;5112730;28;20435;-78
2022/10/02 05:14:54;;;;;;;5.20;4.77;;;;;;;16.32;93.79;94939.31;5113466;28;20207;-79
2022/10/02 05:17:37;;;;;;;4.63;4.33;;;;;;;16.44;92.84;94932.69;5077510;28;20835;-79
2022/10/02 05:20:27;;;;;;;4.73;4.10;;;;;;;16.60;91.01;94929.22;5113340;28;20458;-79
2022/10/02 05:23:15;;;;;;;4.13;3.77;;;;;;;16.64;90.00;94923.44;5030458;28;21014;-78
2022/10/02 05:26:08;;;;;;;5.53;5.13;;;;;;;17.03;89.73;94952.75;5030630;28;20449;-79
2022/10/02 05:28:59;;;;;;;5.77;5.27;;;;;;;17.58;87.08;94956.44;5030673;28;20445;-79
2022/10/02 05:31:38;;;;;;;6.30;3.67;;;;;;;17.88;82.04;94950.34;5030583;28;20442;-79
2022/10/02 05:34:25;;;;;;;3.80;3.50;;;;;;;18.09;80.31;94967.53;5030824;28;20454;-79
2022/10/02 05:37:12;;;;;;;5.07;3.50;;;;;;;18.32;79.52;94973.72;5030800;28;20454;-79
2022/10/02 05:39:49;;;;;;;4.53;3.73;;;;;;;18.46;79.36;94953.50;5030530;28;20450;-79
2022/10/02 05:42:26;;;;;;;3.90;3.30;;;;;;;18.54;77.57;94967.59;5030536;28;20552;-79
2022/10/02 05:44:59;;;;;;;4.37;3.97;;;;;;;18.62;76.56;94968.53;5030387;28;20465;-79
2022/10/02 05:47:30;;;;;;;3.57;3.27;;;;;;;18.62;76.69;94973.84;5030561;28;20505;-79
2022/10/02 05:50:03;;;;;;;3.87;3.57;;;;;;;18.72;76.33;94991.22;5030478;28;20446;-79
2022/10/02 05:52:36;;;;;;;4.93;4.63;;;;;;;18.68;76.35;94983.78;5030151;28;21058;-79
2022/10/02 05:55:19;;;;;;;3.90;3.57;;;;;;;18.20;76.31;94981.22;5030408;28;20848;-79
2022/10/02 05:57:51;;;;;;;3.80;3.50;;;;;;;17.77;76.29;94984.44;5030643;28;20587;-79
2022/10/02 06:00:28;;;;;;;4.17;3.87;;;;;;;17.51;77.61;94996.09;5075186;28;20481;-79
2022/10/02 06:03:03;;;;;;;4.80;4.13;;;;;;;17.51;79.12;94989.94;5112898;28;20481;-79
2022/10/02 06:05:49;;;;;;;6.00;4.60;;;;;;;17.77;78.90;95001.19;5112920;28;20434;-79
2022/10/02 06:08:20;;;;;;;5.80;3.80;;;;;;;17.98;77.47;95021.84;5113227;28;20536;-79
2022/10/02 06:10:52;;;;;;;4.37;3.97;;;;;;;17.96;77.21;95015.91;5113303;28;20470;-79
2022/10/02 06:13:25;;;;;;;3.90;3.60;;;;;;;17.94;77.30;95016.06;5062074;28;20446;-79
2022/10/02 06:15:57;;;;;;;4.73;4.43;;;;;;;18.00;77.73;95006.59;5112992;28;20854;-79
2022/10/02 06:18:30;;;;;;;8.90;4.00;;;;;;;18.27;75.90;95007.94;5112693;28;20448;-78
2022/10/02 06:21:03;;;;;;;3.87;3.57;;;;;;;18.00;76.04;95017.19;5113142;28;20450;-78
2022/10/02 06:23:33;;;;;;;4.40;3.13;;;;;;;18.08;76.75;95022.47;5112449;28;20482;-79
2022/10/02 06:26:03;;;;;;;4.63;3.97;;;;;;;18.05;75.35;95032.63;5112933;28;20528;-78
2022/10/02 06:28:37;;;;;;;6.43;3.93;;;;;;;18.18;75.45;95030.22;5115358;28;20431;-79
2022/10/02 06:31:11;;;;;;;5.53;3.87;;;;;;;18.26;74.69;95027.53;5116891;28;20515;-79
2022/10/02 06:33:38;;;;;;;5.27;4.87;;;;;;;18.28;74.78;95041.47;5116904;28;20450;-78
2022/10/02 06:36:23;;;;;;;4.93;4.53;;;;;;;18.41;75.94;95041.72;5116424;28;20499;-79
2022/10/02 06:39:17;;;;;;;7.23;4.63;;;;;;;18.53;74.51;95050.16;5116735;28;20782;-79
2022/10/02 06:41:54;;;;;;;5.77;5.27;;;;;;;18.70;74.33;95054.38;5033607;28;20507;-79
2022/10/02 06:44:27;;;;;;;5.03;4.53;;;;;;;18.85;73.65;95070.44;5033617;28;20446;-79
2022/10/02 06:47:10;;;;;;;5.70;5.20;;;;;;;19.03;73.01;95068.28;5033573;28;20446;-79
2022/10/02 06:49:47;;;;;;;4.10;3.77;;;;;;;19.15;71.54;95061.56;5033428;28;20465;-79
2022/10/02 06:52:27;;;;;;;4.33;4.03;;;;;;;19.24;70.00;95074.78;5033124;28;20473;-78
2022/10/02 06:55:13;;;;;;;4.80;4.50;;;;;;;19.29;70.55;95085.72;5033596;28;20451;-78
2022/10/02 06:57:56;;;;;;;5.17;4.77;;;;;;;19.36;70.41;95084.81;5033542;28;20434;-79
2022/10/02 07:00:23;;;;;;;4.87;4.57;;;;;;;19.49;69.77;95078.91;5033359;28;20438;-79
2022/10/02 07:03:15;;;;;;;4.57;4.27;;;;;;;19.62;68.94;95083.63;5033163;28;20482;-79
2022/10/02 07:06:09;;;;;;;5.10;3.93;;;;;;;19.68;67.81;95090.91;5032940;28;20461;-79
2022/10/02 07:08:54;;;;;;;4.00;3.70;;;;;;;19.37;68.85;95093.63;4935799;29;20490;-79
2022/10/02 07:11:28;;;;;;;4.20;3.83;;;;;;;19.38;67.70;95101.47;4935696;29;20454;-77
2022/10/02 07:14:08;;;;;;;4.30;4.03;;;;;;;19.57;68.58;95109.97;4935669;29;20590;-79
2022/10/02 07:16:52;;;;;;;3.97;3.70;;;;;;;19.59;66.75;95084.81;4888242;29;20481;-78
2022/10/02 07:19:39;;;;;;;4.93;4.37;;;;;;;19.76;66.95;95112.97;4990716;28;20442;-79
2022/10/02 07:22:24;;;;;;;3.93;3.73;;;;;;;19.92;66.82;95106.63;4979994;28;21019;-78
2022/10/02 07:25:08;;;;;;;4.33;3.73;;;;;;;19.98;65.78;95121.09;5013151;28;20451;-79
2022/10/02 07:27:41;;;;;;;3.80;3.60;;;;;;;20.02;64.61;95117.88;5012877;28;20451;-78
2022/10/02 07:30:11;;;;;;;3.50;3.23;;;;;;;20.13;64.16;95129.91;5013216;28;20452;-79
2022/10/02 07:32:47;;;;;;;3.37;3.07;;;;;;;20.19;62.14;95123.84;5012778;28;20543;-79
2022/10/02 07:35:43;;;;;;;3.40;3.20;;;;;;;20.16;62.30;95110.88;4981660;28;20833;-79
2022/10/02 07:38:42;;;;;;;5.80;3.50;;;;;;;20.32;62.75;95116.03;5012943;28;20448;-79
2022/10/02 07:41:33;;;;;;;3.83;3.33;;;;;;;20.45;60.00;95122.59;5012708;28;20452;-79
2022/10/02 07:44:11;;;;;;;3.17;2.97;;;;;;;20.60;59.82;95121.56;5012943;28;20479;-78
2022/10/02 07:46:48;;;;;;;3.00;2.63;;;;;;;20.89;60.31;95126.03;5094688;28;20439;-78
2022/10/02 07:49:35;;;;;;;3.90;2.97;;;;;;;20.61;58.89;95120.56;5065231;28;20455;-79
2022/10/02 07:52:12;;;;;;;3.90;3.20;;;;;;;20.53;59.57;95109.16;5115216;28;20577;-79
2022/10/02 07:54:58;;;;;;;3.33;3.10;;;;;;;20.32;60.07;95113.38;5115264;28;20443;-83
2022/10/02 07:57:36;;;;;;;2.83;2.63;;;;;;;20.35;60.07;95112.19;5114798;28;20471;-80
2022/10/02 08:00:06;;;;;;;3.03;2.83;;;;;;;20.44;59.72;95112.94;5114738;28;20454;-78
2022/10/02 08:02:39;;;;;;;3.20;3.00;;;;;;;20.34;58.66;95123.84;5115177;28;20489;-79
2022/10/02 08:05:16;;;;;;;2.77;2.57;;;;;;;20.34;58.34;95114.03;5115561;28;20451;-79
2022/10/02 08:07:49;;;;;;;2.73;2.53;;;;;;;20.13;58.76;95119.25;5114829;28;20474;-78
2022/10/02 08:10:21;;;;;;;2.83;2.63;;;;;;;19.95;58.28;95116.97;5115029;28;20524;-78
2022/10/02 08:12:59;;;;;;;2.80;2.60;;;;;;;19.80;59.07;95122.25;5115074;28;20486;-78
2022/10/02 08:15:32;;;;;;;3.13;2.80;;;;;;;19.68;59.05;95105.06;5115058;28;20435;-79
2022/10/02 08:18:03;;;;;;;4.50;2.47;;;;;;;19.79;60.87;95107.28;5115149;28;20492;-79
2022/10/02 08:20:35;;;;;;;10.90;5.07;;;;;;;19.77;60.21;95103.97;5114252;28;20937;-79
2022/10/02 08:23:09;;;;;;;14.90;2.93;;;;;;;19.65;60.97;95102.72;5114801;28;20883;-79
2022/10/02 08:25:43;;;;;;;8.77;3.00;;;;;;;19.70;60.42;95118.19;5064712;28;20461;-81
2022/10/02 08:28:18;;;;;;;3.00;2.70;;;;;;;19.89;61.50;95117.66;5115200;28;20517;-79
2022/10/02 08:30:45;;;;;;;2.70;2.50;;;;;;;19.73;60.58;95113.34;5114683;28;20431;-79
2022/10/02 08:33:16;;;;;;;2.73;2.53;;;;;;;19.48;60.12;95120.66;5114624;28;20454;-78
2022/10/02 08:35:54;;;;;;;3.23;3.00;;;;;;;19.48;61.36;95126.00;5114692;28;20458;-78
2022/10/02 08:38:35;;;;;;;3.03;2.83;;;;;;;19.76;65.86;95120.13;5114896;28;20478;-79
2022/10/02 08:41:37;;;;;;;6.13;2.77;;;;;;;20.06;61.17;95129.00;5064282;28;20443;-79
2022/10/02 08:44:41;;;;;;;2.70;2.50;;;;;;;20.18;60.81;95130.19;5061726;28;20478;-78
2022/10/02 08:47:44;;;;;;;2.87;2.67;;;;;;;20.16;59.11;95118.88;5114724;28;20902;-81
2022/10/02 08:50:55;;;;;;;3.20;2.50;;;;;;;19.94;58.20;95117.09;5030907;28;20540;-78
2022/10/02 08:53:51;;;;;;;2.50;2.30;;;;;;;19.77;58.92;95119.94;5031331;28;20971;-79
2022/10/02 08:56:39;;;;;;;2.63;2.43;;;;;;;19.76;59.08;95099.66;5031426;28;20451;-79
2022/10/02 08:59:47;;;;;;;2.67;2.47;;;;;;;19.88;58.50;95116.00;5031250;28;20474;-79
2022/10/02 09:02:59;;;;;;;1.63;1.53;;;;;;;19.67;58.77;95118.56;5030821;28;20458;-79
2022/10/02 09:05:59;;;;;;;3.40;2.40;;;;;;;19.68;59.65;95123.69;5031189;28;20450;-79
2022/10/02 09:08:56;;;;;;;3.83;2.40;;;;;;;19.71;59.40;95103.88;5030895;28;20478;-79
2022/10/02 09:12:11;;;;;;;2.53;2.30;;;;;;;19.78;59.60;95132.25;5031079;28;20438;-79
2022/10/02 09:14:50;;;;;;;2.83;2.63;;;;;;;19.96;59.64;95129.25;4972256;28;20445;-79
2022/10/02 09:17:48;;;;;;;3.70;2.63;;;;;;;19.82;58.28;95123.91;4972369;28;20452;-78
2022/10/02 09:21:11;;;;;;;3.13;2.93;;;;;;;19.80;59.45;95118.75;4971753;28;20951;-78
2022/10/02 09:24:24;;;;;;;7.13;2.43;;;;;;;19.65;59.46;95116.03;4972220;28;20500;-79
2022/10/02 09:27:13;;;;;;;2.83;2.63;;;;;;;19.61;59.51;95113.94;4993447;28;20462;-80
2022/10/02 09:30:17;;;;;;;2.87;2.67;;;;;;;19.83;59.56;95125.56;5031277;28;20449;-80
2022/10/02 09:33:16;;;;;;;3.40;2.87;;;;;;;19.91;60.28;95122.81;5032120;28;20497;-80
2022/10/02 09:36:08;;;;;;;5.87;3.27;;;;;;;19.93;59.13;95123.44;5031361;28;20546;-79
2022/10/02 09:39:08;;;;;;;3.27;3.07;;;;;;;19.94;59.70;95109.13;5031281;28;20557;-80
2022/10/02 09:42:19;;;;;;;2.97;2.77;;;;;;;19.93;59.40;95112.78;5031317;28;20458;-80
2022/10/02 09:45:20;;;;;;;2.93;2.73;;;;;;;20.11;59.84;95113.28;5031166;28;20481;-79
2022/10/02 09:48:31;;;;;;;3.37;3.07;;;;;;;20.17;58.43;95123.19;5030999;28;20455;-80
2022/10/02 09:51:42;;;;;;;3.10;2.90;;;;;;;20.31;57.89;95121.56;5102707;28;20489;-80
2022/10/02 09:54:50;;;;;;;3.90;3.70;;;;;;;20.53;58.32;95127.81;5114175;28;20519;-79
2022/10/02 09:57:46;;;;;;;4.40;3.57;;;;;;;20.63;56.55;95129.19;5061539;28;20439;-81
2022/10/02 10:00:22;;;;;;;4.93;2.90;;;;;;;20.49;57.44;95131.88;5113984;28;20522;-81
2022/10/02 10:03:26;;;;;;;10.93;3.13;;;;;;;20.30;56.74;95128.72;5064542;28;20481;-79
2022/10/02 10:06:38;;;;;;;3.30;2.80;;;;;;;20.38;57.62;95128.63;5117719;28;20467;-80
2022/10/02 10:09:29;;;;;;;3.23;2.97;;;;;;;20.36;56.44;95114.66;5117710;28;20471;-80
2022/10/02 10:12:36;;;;;;;2.60;2.40;;;;;;;20.25;56.18;95122.31;5117485;28;20458;-80
2022/10/02 10:15:33;;;;;;;3.20;2.90;;;;;;;20.18;55.92;95116.03;5071407;28;20434;-80
2022/10/02 10:18:42;;;;;;;3.07;2.87;;;;;;;20.00;56.15;95135.06;5117460;28;20439;-79
2022/10/02 10:21:48;;;;;;;2.90;2.60;;;;;;;19.88;55.65;95108.00;5034236;28;20980;-78
2022/10/02 10:24:47;;;;;;;3.00;2.80;;;;;;;19.88;57.93;95120.50;5033284;28;20477;-80
2022/10/02 10:27:29;;;;;;;3.63;3.40;;;;;;;19.86;58.35;95117.19;4940791;29;20439;-80
2022/10/02 10:30:38;;;;;;;5.40;3.40;;;;;;;19.83;58.23;95128.22;4948493;29;20450;-79
2022/10/02 10:33:35;;;;;;;3.53;3.23;;;;;;;20.06;64.52;95129.00;4899091;29;20473;-80
2022/10/02 10:39:32;;;;;;;3.17;2.87;;;;;;;20.14;58.08;95136.06;4843155;29;20551;-80
2022/10/02 10:42:32;;;;;;;2.70;2.50;;;;;;;20.02;57.36;95138.34;4842986;29;20473;-79
2022/10/02 10:45:24;;;;;;;3.67;2.70;;;;;;;19.94;57.77;95114.44;4747678;30;20498;-79
2022/10/02 10:48:21;;;;;;;3.97;2.90;;;;;;;20.15;58.60;95119.88;4788671;30;20465;-80
2022/10/02 10:51:13;;;;;;;2.60;2.40;;;;;;;20.23;57.04;95108.31;4755542;30;20581;-81
2022/10/02 10:57:12;;;;;;;2.63;2.43;;;;;;;20.25;55.97;95101.81;4776743;29;20909;-81
2022/10/02 10:59:57;;;;;;;3.10;2.80;;;;;;;20.23;58.75;95103.81;4811239;29;20984;-80
2022/10/02 11:02:58;;;;;;;3.03;2.83;;;;;;;20.22;56.80;95102.16;4805882;29;20459;-80
2022/10/02 11:05:55;;;;;;;2.83;2.63;;;;;;;20.23;60.21;95093.16;4859468;29;20454;-81
2022/10/02 11:08:51;;;;;;;4.13;2.57;;;;;;;20.29;56.79;95087.09;4882151;29;20458;-80
2022/10/02 11:11:23;;;;;;;5.90;2.30;;;;;;;20.24;56.54;95094.84;4878891;29;20545;-80
2022/10/02 11:14:08;;;;;;;3.77;2.20;;;;;;;20.36;55.96;95098.66;4878249;29;20942;-80
2022/10/02 11:17:19;;;;;;;2.70;2.50;;;;;;;20.26;56.31;95084.81;4907068;29;20521;-77
2022/10/02 11:20:21;;;;;;;3.13;2.83;;;;;;;20.23;56.76;95087.00;4842763;29;20447;-80
2022/10/02 11:23:19;;;;;;;2.63;2.47;;;;;;;20.25;55.60;95083.16;4859804;29;20454;-77
2022/10/02 11:26:13;;;;;;;2.10;2.00;;;;;;;20.22;55.81;95077.34;4861051;29;20970;-77
2022/10/02 11:28:58;;;;;;;2.77;2.53;;;;;;;20.24;55.48;95073.50;4923450;29;20921;-79
2022/10/02 11:31:52;;;;;;;8.90;2.40;;;;;;;20.14;58.10;95061.47;4935915;29;20969;-79
2022/10/02 11:34:57;;;;;;;8.80;2.30;;;;;;;20.27;57.42;95070.47;4935849;29;20455;-79
2022/10/02 11:37:44;;;;;;;2.83;2.43;;;;;;;20.15;54.91;95058.59;4936054;29;20474;-78
2022/10/02 11:40:43;;;;;;;2.57;2.37;;;;;;;20.03;55.34;95068.09;4935572;29;20495;-80
2022/10/02 11:43:33;;;;;;;3.73;2.40;;;;;;;19.96;56.79;95068.00;4890023;29;20950;-79
2022/10/02 11:46:14;;;;;;;2.60;2.40;;;;;;;20.09;55.55;95078.00;4897848;29;20453;-79
2022/10/02 11:49:03;;;;;;;2.53;2.10;;;;;;;20.11;54.97;95082.13;4928012;29;20807;-79
2022/10/02 11:51:49;;;;;;;2.30;2.10;;;;;;;19.99;55.94;95080.94;4954480;29;20486;-79
2022/10/02 11:54:44;;;;;;;3.63;2.17;;;;;;;19.85;55.23;95084.41;4906930;28;20461;-80
2022/10/02 11:57:33;;;;;;;2.30;2.10;;;;;;;19.81;55.70;95077.81;5007492;28;20451;-78
2022/10/02 12:00:12;;;;;;;4.10;1.93;;;;;;;19.87;55.79;95081.56;5048799;28;20500;-79
2022/10/02 12:02:49;;;;;;;2.20;2.10;;;;;;;19.82;55.82;95067.97;5052484;28;20824;-79
2022/10/02 12:05:52;;;;;;;2.30;2.10;;;;;;;19.71;55.87;95078.06;5052183;28;20862;-79
2022/10/02 12:08:29;;;;;;;4.00;2.83;;;;;;;19.82;56.29;95078.63;5051983;28;20958;-79
2022/10/02 12:11:02;;;;;;;4.27;2.40;;;;;;;19.84;57.49;95081.94;5052311;28;20437;-79
2022/10/02 12:13:45;;;;;;;1.90;1.80;;;;;;;19.86;56.23;95090.56;5052223;28;20446;-79
2022/10/02 12:16:23;;;;;;;2.53;2.33;;;;;;;19.83;56.41;95082.94;5052138;28;20582;-79
2022/10/02 12:19:03;;;;;;;2.43;2.23;;;;;;;19.84;55.99;95072.09;5050833;28;20453;-79
2022/10/02 12:27:36;;;;;;;2.70;2.50;;;;;;;19.63;56.51;95079.97;5093567;28;20558;-79
2022/10/02 12:30:08;;;;;;;2.10;2.00;;;;;;;19.62;57.21;95081.81;5104253;28;20843;-79
2022/10/02 12:32:51;;;;;;;2.77;2.60;;;;;;;19.61;56.48;95089.97;5097817;28;20455;-79
2022/10/02 12:35:31;;;;;;;2.20;2.10;;;;;;;19.59;55.36;95084.81;5104876;28;20486;-79
2022/10/02 12:38:15;;;;;;;2.40;2.20;;;;;;;19.54;55.27;95097.84;5114070;28;20451;-79
2022/10/02 12:40:51;;;;;;;2.80;2.60;;;;;;;19.52;55.87;95089.19;5114588;28;20839;-79
2022/10/02 12:44:05;;;;;;;2.80;2.60;;;;;;;19.55;56.41;95091.53;5113884;28;20435;-79
2022/10/02 12:46:58;;;;;;;3.17;2.23;;;;;;;19.66;57.06;95084.94;5031612;28;20462;-79
2022/10/02 12:49:36;;;;;;;2.80;2.57;;;;;;;19.72;57.24;95079.72;5045244;28;20558;-79
2022/10/02 12:52:33;;;;;;;2.50;2.30;;;;;;;19.75;55.81;95074.03;5031240;28;20593;-79
2022/10/02 12:55:44;;;;;;;2.67;2.20;;;;;;;19.77;56.83;95088.00;5031305;28;20522;-79
2022/10/02 12:58:23;;;;;;;3.23;3.00;;;;;;;19.69;54.30;95085.41;5045179;28;20461;-79
2022/10/02 13:01:30;;;;;;;3.43;2.50;;;;;;;19.72;54.48;95082.38;5031425;28;20976;-79
2022/10/02 13:04:41;;;;;;;2.60;2.40;;;;;;;19.65;55.10;95072.63;5038914;28;20580;-79
2022/10/02 13:07:54;;;;;;;2.73;2.53;;;;;;;19.61;55.63;95071.34;4877088;29;20921;-79
2022/10/02 13:10:25;;;;;;;2.60;2.50;;;;;;;19.71;56.37;95078.06;4877476;29;21008;-79
2022/10/02 13:13:06;;;;;;;2.83;2.63;;;;;;;19.78;55.94;95083.50;4877360;29;20454;-79
2022/10/02 13:15:46;;;;;;;2.60;2.40;;;;;;;19.90;56.25;95083.84;4877303;29;20456;-80
2022/10/02 13:18:44;;;;;;;2.60;2.40;;;;;;;19.97;55.58;95090.13;4877348;29;20842;-80
2022/10/02 13:21:17;;;;;;;3.10;2.47;;;;;;;20.00;55.51;95093.25;4803787;29;20523;-79
2022/10/02 13:23:56;;;;;;;7.50;2.53;;;;;;;20.03;55.45;95086.72;4853597;29;20568;-80
2022/10/02 13:26:35;;;;;;;4.03;3.20;;;;;;;19.90;55.13;95097.19;4877190;29;20461;-78
2022/10/02 13:29:17;;;;;;;2.80;2.60;;;;;;;19.75;53.01;95097.16;4874695;29;20937;-79
2022/10/02 13:32:00;;;;;;;2.80;2.60;;;;;;;19.66;54.14;95092.91;4865786;29;20946;-79
2022/10/02 13:34:49;;;;;;;2.30;2.10;;;;;;;19.65;55.13;95105.41;4858623;29;20850;-79
2022/10/02 13:37:30;;;;;;;2.60;2.07;;;;;;;19.62;54.67;95100.44;4872240;29;20466;-79
2022/10/02 13:40:13;;;;;;;2.57;2.37;;;;;;;19.60;54.95;95102.44;4877060;29;20454;-78
2022/10/02 13:42:53;;;;;;;4.37;2.67;;;;;;;19.62;55.02;95105.75;4916090;29;20454;-79
2022/10/02 13:45:28;;;;;;;2.13;1.93;;;;;;;19.66;55.00;95099.09;5006109;28;20514;-79
2022/10/02 13:48:04;;;;;;;4.50;2.47;;;;;;;19.62;55.34;95103.09;5029159;28;20453;-79
2022/10/02 13:50:47;;;;;;;3.43;2.60;;;;;;;19.60;55.58;95099.78;4994565;28;20461;-78
2022/10/02 13:53:39;;;;;;;1.90;1.80;;;;;;;19.57;55.50;95099.31;4974816;28;20447;-78
2022/10/02 13:56:19;;;;;;;2.10;2.00;;;;;;;19.53;54.71;95084.69;5029151;28;21030;-79
2022/10/02 13:59:14;;;;;;;3.00;2.50;;;;;;;19.50;55.43;95080.56;5036624;28;20444;-79